sensor_id;sensor_type;location;lat;lon;timestamp;pressure;altitude;pressure_sealevel;temperature;humidity
62025;BME280;47978;49.118;12.146;2023-05-22T00:01:33;97160.59;;;12.43;94.11
62025;BME280;47978;49.118;12.146;2023-05-22T00:05:36;97163.88;;;12.36;94.37
62025;BME280;47978;49.118;12.146;2023-05-22T00:09:37;97157.50;;;12.35;94.36
62025;BME280;47978;49.118;12.146;2023-05-22T00:13:39;97159.63;;;12.30;94.59
62025;BME280;47978;49.118;12.146;2023-05-22T00:17:41;97163.38;;;12.25;94.71
62025;BME280;47978;49.118;12.146;2023-05-22T00:21:44;97159.44;;;12.18;95.29
62025;BME280;47978;49.118;12.146;2023-05-22T00:25:45;97154.22;;;12.16;95.21
62025;BME280;47978;49.118;12.146;2023-05-22T00:29:47;97148.69;;;12.07;95.72
62025;BME280;47978;49.118;12.146;2023-05-22T00:33:48;97146.72;;;11.99;96.07
62025;BME280;47978;49.118;12.146;2023-05-22T00:37:51;97155.34;;;11.98;96.40
62025;BME280;47978;49.118;12.146;2023-05-22T00:41:53;97152.91;;;11.96;96.08
62025;BME280;47978;49.118;12.146;2023-05-22T00:45:55;97150.78;;;12.02;95.49
62025;BME280;47978;49.118;12.146;2023-05-22T00:49:57;97147.88;;;11.98;95.77
62025;BME280;47978;49.118;12.146;2023-05-22T00:54:00;97140.00;;;11.91;95.98
62025;BME280;47978;49.118;12.146;2023-05-22T00:58:04;97140.13;;;11.78;96.75
62025;BME280;47978;49.118;12.146;2023-05-22T01:02:06;97139.63;;;11.67;97.05
62025;BME280;47978;49.118;12.146;2023-05-22T01:06:08;97145.59;;;11.60;98.38
62025;BME280;47978;49.118;12.146;2023-05-22T01:10:11;97138.13;;;11.61;98.31
62025;BME280;47978;49.118;12.146;2023-05-22T01:14:13;97156.16;;;11.49;98.52
62025;BME280;47978;49.118;12.146;2023-05-22T01:18:24;97148.34;;;11.52;98.18
62025;BME280;47978;49.118;12.146;2023-05-22T01:22:50;97158.63;;;11.51;98.32
62025;BME280;47978;49.118;12.146;2023-05-22T01:27:20;97155.19;;;11.45;98.40
62025;BME280;47978;49.118;12.146;2023-05-22T01:31:30;97154.19;;;11.41;98.16
62025;BME280;47978;49.118;12.146;2023-05-22T01:35:32;97160.69;;;11.37;98.49
62025;BME280;47978;49.118;12.146;2023-05-22T01:39:36;97154.78;;;11.30;98.70
62025;BME280;47978;49.118;12.146;2023-05-22T01:43:38;97158.00;;;11.23;98.85
62025;BME280;47978;49.118;12.146;2023-05-22T01:47:41;97162.06;;;11.17;99.32
62025;BME280;47978;49.118;12.146;2023-05-22T01:51:51;97157.47;;;11.12;99.37
62025;BME280;47978;49.118;12.146;2023-05-22T01:55:57;97157.28;;;11.09;99.38
62025;BME280;47978;49.118;12.146;2023-05-22T02:00:04;97152.03;;;10.98;99.40
62025;BME280;47978;49.118;12.146;2023-05-22T02:04:09;97148.78;;;10.96;100.00
62025;BME280;47978;49.118;12.146;2023-05-22T02:08:12;97149.19;;;10.90;100.00
62025;BME280;47978;49.118;12.146;2023-05-22T02:12:14;97157.97;;;10.83;100.00
62025;BME280;47978;49.118;12.146;2023-05-22T02:16:16;97165.13;;;10.84;100.00
62025;BME280;47978;49.118;12.146;2023-05-22T02:20:19;97156.00;;;10.84;100.00
62025;BME280;47978;49.118;12.146;2023-05-22T02:24:21;97154.22;;;10.79;100.00
62025;BME280;47978;49.118;12.146;2023-05-22T02:28:22;97140.22;;;10.84;99.73
62025;BME280;47978;49.118;12.146;2023-05-22T02:32:24;97151.91;;;10.81;100.00
62025;BME280;47978;49.118;12.146;2023-05-22T02:36:27;97145.53;;;10.72;100.00
62025;BME280;47978;49.118;12.146;2023-05-22T02:40:29;97137.69;;;10.65;100.00
62025;BME280;47978;49.118;12.146;2023-05-22T02:44:30;97142.94;;;10.53;100.00
62025;BME280;47978;49.118;12.146;2023-05-22T02:48:32;97138.25;;;10.53;100.00
62025;BME280;47978;49.118;12.146;2023-05-22T02:52:35;97147.19;;;10.50;100.00
62025;BME280;47978;49.118;12.146;2023-05-22T02:56:36;97143.41;;;10.46;100.00
62025;BME280;47978;49.118;12.146;2023-05-22T03:00:38;97150.81;;;10.37;100.00
62025;BME280;47978;49.118;12.146;2023-05-22T03:04:40;97149.94;;;10.28;100.00
62025;BME280;47978;49.118;12.146;2023-05-22T03:08:43;97150.84;;;10.23;100.00
62025;BME280;47978;49.118;12.146;2023-05-22T03:12:44;97148.06;;;10.23;100.00
62025;BME280;47978;49.118;12.146;2023-05-22T03:16:46;97144.50;;;10.23;100.00
62025;BME280;47978;49.118;12.146;2023-05-22T03:20:47;97146.56;;;10.17;100.00
62025;BME280;47978;49.118;12.146;2023-05-22T03:24:50;97153.00;;;10.12;100.00
62025;BME280;47978;49.118;12.146;2023-05-22T03:28:52;97153.72;;;10.18;100.00
62025;BME280;47978;49.118;12.146;2023-05-22T03:32:54;97154.84;;;10.17;100.00
62025;BME280;47978;49.118;12.146;2023-05-22T03:36:55;97155.47;;;10.14;100.00
62025;BME280;47978;49.118;12.146;2023-05-22T03:40:58;97155.53;;;10.23;100.00
62025;BME280;47978;49.118;12.146;2023-05-22T03:45:00;97156.41;;;10.09;100.00
62025;BME280;47978;49.118;12.146;2023-05-22T03:49:01;97157.91;;;10.16;100.00
62025;BME280;47978;49.118;12.146;2023-05-22T03:53:03;97155.53;;;10.23;100.00
62025;BME280;47978;49.118;12.146;2023-05-22T03:57:06;97156.88;;;10.25;100.00
62025;BME280;47978;49.118;12.146;2023-05-22T04:01:07;97156.28;;;10.28;100.00
62025;BME280;47978;49.118;12.146;2023-05-22T04:05:09;97163.31;;;10.34;100.00
62025;BME280;47978;49.118;12.146;2023-05-22T04:09:11;97158.47;;;10.40;100.00
62025;BME280;47978;49.118;12.146;2023-05-22T04:13:15;97155.41;;;10.42;100.00
62025;BME280;47978;49.118;12.146;2023-05-22T04:17:17;97153.13;;;10.44;100.00
62025;BME280;47978;49.118;12.146;2023-05-22T04:21:18;97151.44;;;10.56;100.00
62025;BME280;47978;49.118;12.146;2023-05-22T04:25:20;97152.78;;;10.59;100.00
62025;BME280;47978;49.118;12.146;2023-05-22T04:29:23;97151.19;;;10.67;100.00
62025;BME280;47978;49.118;12.146;2023-05-22T04:33:25;97151.38;;;10.70;100.00
62025;BME280;47978;49.118;12.146;2023-05-22T04:37:26;97162.50;;;10.79;100.00
62025;BME280;47978;49.118;12.146;2023-05-22T04:41:28;97145.91;;;11.10;100.00
62025;BME280;47978;49.118;12.146;2023-05-22T04:45:31;97161.72;;;11.18;100.00
62025;BME280;47978;49.118;12.146;2023-05-22T04:49:32;97154.59;;;11.75;96.97
62025;BME280;47978;49.118;12.146;2023-05-22T04:53:34;97161.72;;;12.07;95.66
62025;BME280;47978;49.118;12.146;2023-05-22T04:57:35;97163.72;;;11.75;96.54
62025;BME280;47978;49.118;12.146;2023-05-22T05:01:38;97153.50;;;11.84;97.37
62025;BME280;47978;49.118;12.146;2023-05-22T05:05:40;97159.56;;;11.86;98.51
62025;BME280;47978;49.118;12.146;2023-05-22T05:09:42;97154.03;;;12.04;97.39
62025;BME280;47978;49.118;12.146;2023-05-22T05:13:43;97153.34;;;13.02;93.03
62025;BME280;47978;49.118;12.146;2023-05-22T05:17:46;97147.28;;;15.24;82.21
62025;BME280;47978;49.118;12.146;2023-05-22T05:21:48;97139.84;;;16.51;77.08
62025;BME280;47978;49.118;12.146;2023-05-22T05:25:50;97136.31;;;19.38;65.20
62025;BME280;47978;49.118;12.146;2023-05-22T05:29:51;97132.91;;;21.11;59.48
62025;BME280;47978;49.118;12.146;2023-05-22T05:33:54;97143.00;;;21.49;57.71
62025;BME280;47978;49.118;12.146;2023-05-22T05:37:55;97141.81;;;20.83;58.47
62025;BME280;47978;49.118;12.146;2023-05-22T05:41:57;97130.78;;;22.23;55.59
62025;BME280;47978;49.118;12.146;2023-05-22T05:45:59;97136.16;;;23.34;52.58
62025;BME280;47978;49.118;12.146;2023-05-22T05:50:02;97135.84;;;24.25;50.72
62025;BME280;47978;49.118;12.146;2023-05-22T05:54:04;97138.16;;;24.77;50.18
62025;BME280;47978;49.118;12.146;2023-05-22T05:58:06;97129.44;;;25.97;47.40
62025;BME280;47978;49.118;12.146;2023-05-22T06:02:08;97131.44;;;25.41;47.85
62025;BME280;47978;49.118;12.146;2023-05-22T06:06:11;97133.16;;;25.13;48.77
62025;BME280;47978;49.118;12.146;2023-05-22T06:10:13;97128.59;;;25.41;47.69
62025;BME280;47978;49.118;12.146;2023-05-22T06:14:14;97127.63;;;26.62;46.86
62025;BME280;47978;49.118;12.146;2023-05-22T06:18:16;97135.06;;;25.41;50.31
62025;BME280;47978;49.118;12.146;2023-05-22T06:22:19;97140.53;;;27.05;47.27
62025;BME280;47978;49.118;12.146;2023-05-22T06:26:21;97137.34;;;26.99;44.54
62025;BME280;47978;49.118;12.146;2023-05-22T06:30:23;97128.94;;;27.53;46.12
62025;BME280;47978;49.118;12.146;2023-05-22T06:34:41;97132.69;;;27.74;45.06
62025;BME280;47978;49.118;12.146;2023-05-22T06:38:44;97144.13;;;25.04;46.72
62025;BME280;47978;49.118;12.146;2023-05-22T06:42:45;97136.13;;;27.62;43.41
62025;BME280;47978;49.118;12.146;2023-05-22T06:46:47;97136.19;;;28.59;41.79
62025;BME280;47978;49.118;12.146;2023-05-22T06:50:48;97136.97;;;28.36;39.54
62025;BME280;47978;49.118;12.146;2023-05-22T06:54:51;97132.06;;;28.84;40.07
62025;BME280;47978;49.118;12.146;2023-05-22T06:58:53;97130.41;;;27.04;44.76
62025;BME280;47978;49.118;12.146;2023-05-22T07:02:54;97125.84;;;27.44;40.65
62025;BME280;47978;49.118;12.146;2023-05-22T07:06:56;97136.50;;;29.65;37.92
62025;BME280;47978;49.118;12.146;2023-05-22T07:10:59;97141.84;;;29.03;35.96
62025;BME280;47978;49.118;12.146;2023-05-22T07:15:01;97134.84;;;30.00;37.18
62025;BME280;47978;49.118;12.146;2023-05-22T07:19:02;97145.84;;;28.85;39.05
62025;BME280;47978;49.118;12.146;2023-05-22T07:23:04;97138.56;;;28.37;39.96
62025;BME280;47978;49.118;12.146;2023-05-22T07:27:07;97135.59;;;29.68;37.62
62025;BME280;47978;49.118;12.146;2023-05-22T07:31:08;97130.72;;;29.48;37.92
62025;BME280;47978;49.118;12.146;2023-05-22T07:35:10;97132.81;;;29.08;38.90
62025;BME280;47978;49.118;12.146;2023-05-22T07:39:12;97129.03;;;29.87;36.99
62025;BME280;47978;49.118;12.146;2023-05-22T07:43:15;97129.75;;;29.19;36.89
62025;BME280;47978;49.118;12.146;2023-05-22T07:47:16;97127.88;;;27.71;35.59
62025;BME280;47978;49.118;12.146;2023-05-22T07:51:18;97123.28;;;30.40;32.44
62025;BME280;47978;49.118;12.146;2023-05-22T07:55:19;97128.78;;;29.98;31.62
62025;BME280;47978;49.118;12.146;2023-05-22T07:59:22;97126.06;;;27.26;34.59
62025;BME280;47978;49.118;12.146;2023-05-22T08:03:24;97128.38;;;27.04;35.68
62025;BME280;47978;49.118;12.146;2023-05-22T08:07:26;97126.47;;;26.94;34.33
62025;BME280;47978;49.118;12.146;2023-05-22T08:11:27;97121.50;;;28.37;34.21
62025;BME280;47978;49.118;12.146;2023-05-22T08:15:30;97123.56;;;28.13;34.37
62025;BME280;47978;49.118;12.146;2023-05-22T08:19:32;97121.53;;;27.59;35.31
62025;BME280;47978;49.118;12.146;2023-05-22T08:23:33;97119.00;;;28.19;35.29
62025;BME280;47978;49.118;12.146;2023-05-22T08:27:35;97125.56;;;29.96;33.40
62025;BME280;47978;49.118;12.146;2023-05-22T08:31:38;97111.38;;;30.58;31.04
62025;BME280;47978;49.118;12.146;2023-05-22T08:35:39;97119.59;;;30.56;32.37
62025;BME280;47978;49.118;12.146;2023-05-22T08:39:41;97124.84;;;30.08;31.25
62025;BME280;47978;49.118;12.146;2023-05-22T08:43:43;97115.13;;;31.00;30.45
62025;BME280;47978;49.118;12.146;2023-05-22T08:47:50;97118.84;;;28.93;32.39
62025;BME280;47978;49.118;12.146;2023-05-22T08:51:55;97114.38;;;28.29;34.07
62025;BME280;47978;49.118;12.146;2023-05-22T08:56:00;97112.06;;;28.87;33.13
62025;BME280;47978;49.118;12.146;2023-05-22T09:00:03;97117.06;;;27.31;33.77
62025;BME280;47978;49.118;12.146;2023-05-22T09:04:06;97118.16;;;28.66;33.55
62025;BME280;47978;49.118;12.146;2023-05-22T09:08:08;97121.69;;;27.49;33.55
62025;BME280;47978;49.118;12.146;2023-05-22T09:12:20;97105.34;;;26.95;33.65
62025;BME280;47978;49.118;12.146;2023-05-22T09:16:22;97108.75;;;27.48;35.92
62025;BME280;47978;49.118;12.146;2023-05-22T09:20:25;97110.31;;;27.52;35.64
62025;BME280;47978;49.118;12.146;2023-05-22T09:24:27;97102.34;;;26.37;37.06
62025;BME280;47978;49.118;12.146;2023-05-22T09:28:31;97102.56;;;27.26;36.09
62025;BME280;47978;49.118;12.146;2023-05-22T09:32:33;97114.25;;;26.63;35.03
62025;BME280;47978;49.118;12.146;2023-05-22T09:36:36;97102.09;;;26.97;37.04
62025;BME280;47978;49.118;12.146;2023-05-22T09:40:38;97108.06;;;26.34;34.09
62025;BME280;47978;49.118;12.146;2023-05-22T09:44:40;97112.59;;;26.65;34.08
62025;BME280;47978;49.118;12.146;2023-05-22T09:48:42;97106.53;;;26.63;33.55
62025;BME280;47978;49.118;12.146;2023-05-22T09:52:45;97112.91;;;26.75;33.26
62025;BME280;47978;49.118;12.146;2023-05-22T09:56:48;97103.94;;;26.80;33.63
62025;BME280;47978;49.118;12.146;2023-05-22T10:00:50;97102.00;;;26.69;35.06
62025;BME280;47978;49.118;12.146;2023-05-22T10:04:53;97090.09;;;26.47;33.95
62025;BME280;47978;49.118;12.146;2023-05-22T10:09:01;97105.25;;;26.30;33.84
62025;BME280;47978;49.118;12.146;2023-05-22T10:13:04;97099.41;;;26.48;33.47
62025;BME280;47978;49.118;12.146;2023-05-22T10:17:05;97084.66;;;26.98;33.31
62025;BME280;47978;49.118;12.146;2023-05-22T10:21:07;97082.31;;;26.55;33.72
62025;BME280;47978;49.118;12.146;2023-05-22T10:25:10;97086.53;;;26.40;33.41
62025;BME280;47978;49.118;12.146;2023-05-22T10:29:16;97070.25;;;26.47;34.20
62025;BME280;47978;49.118;12.146;2023-05-22T10:33:23;97082.25;;;26.24;33.10
62025;BME280;47978;49.118;12.146;2023-05-22T10:37:44;97081.09;;;26.15;33.76
62025;BME280;47978;49.118;12.146;2023-05-22T10:41:48;97079.25;;;26.35;34.13
62025;BME280;47978;49.118;12.146;2023-05-22T10:46:01;97062.97;;;26.50;33.40
62025;BME280;47978;49.118;12.146;2023-05-22T10:50:06;97060.38;;;26.63;34.64
62025;BME280;47978;49.118;12.146;2023-05-22T10:54:08;97056.63;;;26.69;34.32
62025;BME280;47978;49.118;12.146;2023-05-22T10:58:12;97055.03;;;26.31;34.25
62025;BME280;47978;49.118;12.146;2023-05-22T11:02:18;97049.94;;;26.15;34.05
62025;BME280;47978;49.118;12.146;2023-05-22T11:06:30;97035.09;;;26.76;35.38
62025;BME280;47978;49.118;12.146;2023-05-22T11:10:50;97047.09;;;26.87;33.44
62025;BME280;47978;49.118;12.146;2023-05-22T11:14:55;97038.44;;;26.29;35.97
62025;BME280;47978;49.118;12.146;2023-05-22T11:19:01;97049.75;;;25.91;35.23
62025;BME280;47978;49.118;12.146;2023-05-22T11:23:24;97039.50;;;26.42;35.93
62025;BME280;47978;49.118;12.146;2023-05-22T11:27:25;97037.00;;;26.52;36.50
62025;BME280;47978;49.118;12.146;2023-05-22T11:31:29;97043.22;;;25.98;35.85
62025;BME280;47978;49.118;12.146;2023-05-22T11:35:31;97041.47;;;25.63;37.12
62025;BME280;47978;49.118;12.146;2023-05-22T11:39:32;97033.75;;;25.67;35.83
62025;BME280;47978;49.118;12.146;2023-05-22T11:43:34;97032.06;;;26.18;37.16
62025;BME280;47978;49.118;12.146;2023-05-22T11:47:37;97022.78;;;26.17;35.61
62025;BME280;47978;49.118;12.146;2023-05-22T11:51:39;97027.69;;;26.51;34.95
62025;BME280;47978;49.118;12.146;2023-05-22T11:55:41;97018.72;;;26.56;34.67
62025;BME280;47978;49.118;12.146;2023-05-22T11:59:43;97018.41;;;26.43;34.68
62025;BME280;47978;49.118;12.146;2023-05-22T12:03:46;97011.81;;;26.57;34.87
62025;BME280;47978;49.118;12.146;2023-05-22T12:07:48;97015.31;;;26.68;35.36
62025;BME280;47978;49.118;12.146;2023-05-22T12:11:50;97010.50;;;26.96;33.77
62025;BME280;47978;49.118;12.146;2023-05-22T12:15:52;97013.84;;;26.57;32.74
62025;BME280;47978;49.118;12.146;2023-05-22T12:19:56;97017.44;;;26.91;33.12
62025;BME280;47978;49.118;12.146;2023-05-22T12:24:02;96994.31;;;26.93;32.74
62025;BME280;47978;49.118;12.146;2023-05-22T12:28:05;96995.06;;;26.97;34.43
62025;BME280;47978;49.118;12.146;2023-05-22T12:32:08;96994.91;;;27.08;33.30
62025;BME280;47978;49.118;12.146;2023-05-22T12:36:11;96990.50;;;27.03;33.47
62025;BME280;47978;49.118;12.146;2023-05-22T12:40:13;96999.66;;;26.87;32.50
62025;BME280;47978;49.118;12.146;2023-05-22T12:44:15;96989.66;;;27.06;32.48
62025;BME280;47978;49.118;12.146;2023-05-22T12:48:17;96996.47;;;27.12;33.56
62025;BME280;47978;49.118;12.146;2023-05-22T12:52:19;96995.72;;;27.08;32.63
62025;BME280;47978;49.118;12.146;2023-05-22T12:56:21;96988.91;;;27.29;31.96
62025;BME280;47978;49.118;12.146;2023-05-22T13:00:23;96990.25;;;27.48;32.53
62025;BME280;47978;49.118;12.146;2023-05-22T13:04:24;96989.78;;;26.68;31.05
62025;BME280;47978;49.118;12.146;2023-05-22T13:08:27;96989.69;;;27.33;32.82
62025;BME280;47978;49.118;12.146;2023-05-22T13:12:29;96983.44;;;27.42;31.72
62025;BME280;47978;49.118;12.146;2023-05-22T13:16:31;96981.63;;;27.01;31.99
62025;BME280;47978;49.118;12.146;2023-05-22T13:20:32;96978.28;;;27.06;32.05
62025;BME280;47978;49.118;12.146;2023-05-22T13:24:35;96977.38;;;27.17;31.42
62025;BME280;47978;49.118;12.146;2023-05-22T13:28:37;96971.84;;;27.33;31.30
62025;BME280;47978;49.118;12.146;2023-05-22T13:32:39;96972.09;;;27.66;31.85
62025;BME280;47978;49.118;12.146;2023-05-22T13:36:40;96975.09;;;27.55;31.85
62025;BME280;47978;49.118;12.146;2023-05-22T13:40:43;96963.75;;;27.55;31.66
62025;BME280;47978;49.118;12.146;2023-05-22T13:44:48;96959.00;;;27.72;32.04
62025;BME280;47978;49.118;12.146;2023-05-22T13:48:50;96958.25;;;26.63;30.46
62025;BME280;47978;49.118;12.146;2023-05-22T13:52:51;96956.63;;;27.20;31.69
62025;BME280;47978;49.118;12.146;2023-05-22T13:56:54;96952.94;;;26.96;33.62
62025;BME280;47978;49.118;12.146;2023-05-22T14:00:56;96951.63;;;27.00;32.48
62025;BME280;47978;49.118;12.146;2023-05-22T14:04:58;96951.53;;;27.34;31.55
62025;BME280;47978;49.118;12.146;2023-05-22T14:08:59;96954.44;;;27.54;31.60
62025;BME280;47978;49.118;12.146;2023-05-22T14:13:02;96958.25;;;26.63;30.42
62025;BME280;47978;49.118;12.146;2023-05-22T14:17:05;96941.41;;;27.06;31.77
62025;BME280;47978;49.118;12.146;2023-05-22T14:21:08;96947.91;;;27.07;31.34
62025;BME280;47978;49.118;12.146;2023-05-22T14:25:09;96941.41;;;27.57;31.60
62025;BME280;47978;49.118;12.146;2023-05-22T14:29:12;96952.22;;;27.42;30.99
62025;BME280;47978;49.118;12.146;2023-05-22T14:33:14;96951.03;;;27.63;29.79
62025;BME280;47978;49.118;12.146;2023-05-22T14:37:15;96935.09;;;27.93;29.23
62025;BME280;47978;49.118;12.146;2023-05-22T14:41:17;96934.44;;;27.85;29.89
62025;BME280;47978;49.118;12.146;2023-05-22T14:45:20;96937.28;;;27.62;30.10
62025;BME280;47978;49.118;12.146;2023-05-22T14:49:22;96929.47;;;27.66;30.73
62025;BME280;47978;49.118;12.146;2023-05-22T14:53:23;96930.16;;;27.73;30.28
62025;BME280;47978;49.118;12.146;2023-05-22T14:57:25;96934.13;;;27.79;29.49
62025;BME280;47978;49.118;12.146;2023-05-22T15:01:28;96937.38;;;27.54;29.07
62025;BME280;47978;49.118;12.146;2023-05-22T15:05:29;96933.88;;;27.70;30.23
62025;BME280;47978;49.118;12.146;2023-05-22T15:09:31;96931.22;;;27.59;27.87
62025;BME280;47978;49.118;12.146;2023-05-22T15:13:33;96915.03;;;27.80;29.59
62025;BME280;47978;49.118;12.146;2023-05-22T15:17:36;96920.22;;;27.85;28.32
62025;BME280;47978;49.118;12.146;2023-05-22T15:21:37;96920.75;;;28.00;28.08
62025;BME280;47978;49.118;12.146;2023-05-22T15:25:39;96919.06;;;28.22;29.33
62025;BME280;47978;49.118;12.146;2023-05-22T15:29:41;96919.28;;;28.12;27.85
62025;BME280;47978;49.118;12.146;2023-05-22T15:33:43;96918.50;;;27.68;27.95
62025;BME280;47978;49.118;12.146;2023-05-22T15:37:45;96914.06;;;27.43;29.21
62025;BME280;47978;49.118;12.146;2023-05-22T15:41:47;96898.09;;;27.73;33.11
62025;BME280;47978;49.118;12.146;2023-05-22T15:46:07;96898.78;;;27.80;31.23
62025;BME280;47978;49.118;12.146;2023-05-22T15:50:10;96900.13;;;27.52;28.44
62025;BME280;47978;49.118;12.146;2023-05-22T15:54:12;96896.69;;;27.38;27.67
62025;BME280;47978;49.118;12.146;2023-05-22T15:58:13;96893.00;;;27.41;27.72
62025;BME280;47978;49.118;12.146;2023-05-22T16:02:17;96898.19;;;27.69;29.35
62025;BME280;47978;49.118;12.146;2023-05-22T16:06:20;96887.63;;;27.46;29.70
62025;BME280;47978;49.118;12.146;2023-05-22T16:10:21;96899.19;;;27.35;28.55
62025;BME280;47978;49.118;12.146;2023-05-22T16:14:23;96906.88;;;27.35;32.14
62025;BME280;47978;49.118;12.146;2023-05-22T16:18:24;96897.25;;;27.29;30.50
62025;BME280;47978;49.118;12.146;2023-05-22T16:22:27;96897.13;;;27.12;32.71
62025;BME280;47978;49.118;12.146;2023-05-22T16:26:47;96894.28;;;27.12;29.41
62025;BME280;47978;49.118;12.146;2023-05-22T16:30:48;96895.78;;;26.94;30.67
62025;BME280;47978;49.118;12.146;2023-05-22T16:34:50;96893.19;;;26.79;31.24
62025;BME280;47978;49.118;12.146;2023-05-22T16:38:53;96897.28;;;26.75;31.45
62025;BME280;47978;49.118;12.146;2023-05-22T16:42:54;96899.88;;;26.65;28.78
62025;BME280;47978;49.118;12.146;2023-05-22T16:46:56;96901.97;;;26.61;31.94
62025;BME280;47978;49.118;12.146;2023-05-22T16:50:58;96903.03;;;26.98;31.33
62025;BME280;47978;49.118;12.146;2023-05-22T16:55:01;96900.00;;;26.55;33.88
62025;BME280;47978;49.118;12.146;2023-05-22T16:59:02;96895.63;;;25.82;36.44
62025;BME280;47978;49.118;12.146;2023-05-22T17:03:04;96892.34;;;25.00;39.37
62025;BME280;47978;49.118;12.146;2023-05-22T17:07:06;96902.50;;;25.80;38.74
62025;BME280;47978;49.118;12.146;2023-05-22T17:11:09;96891.84;;;25.16;35.36
62025;BME280;47978;49.118;12.146;2023-05-22T17:15:11;96891.50;;;25.52;39.92
62025;BME280;47978;49.118;12.146;2023-05-22T17:19:12;96894.59;;;25.65;43.23
62025;BME280;47978;49.118;12.146;2023-05-22T17:23:14;96893.69;;;24.85;43.38
62025;BME280;47978;49.118;12.146;2023-05-22T17:27:17;96896.25;;;25.58;41.29
62025;BME280;47978;49.118;12.146;2023-05-22T17:31:35;96899.34;;;24.81;40.00
62025;BME280;47978;49.118;12.146;2023-05-22T17:35:40;96892.78;;;25.47;42.65
62025;BME280;47978;49.118;12.146;2023-05-22T17:39:41;96899.28;;;24.92;44.53
62025;BME280;47978;49.118;12.146;2023-05-22T17:43:44;96896.75;;;24.38;40.96
62025;BME280;47978;49.118;12.146;2023-05-22T17:47:46;96893.72;;;24.00;43.28
62025;BME280;47978;49.118;12.146;2023-05-22T17:51:47;96896.72;;;22.97;46.33
62025;BME280;47978;49.118;12.146;2023-05-22T17:55:49;96900.66;;;22.35;49.17
62025;BME280;47978;49.118;12.146;2023-05-22T17:59:52;96895.63;;;21.89;50.44
62025;BME280;47978;49.118;12.146;2023-05-22T18:03:54;96895.06;;;21.58;51.91
62025;BME280;47978;49.118;12.146;2023-05-22T18:07:55;96903.25;;;21.22;54.08
62025;BME280;47978;49.118;12.146;2023-05-22T18:11:57;96905.41;;;20.92;55.76
62025;BME280;47978;49.118;12.146;2023-05-22T18:16:00;96914.09;;;20.72;57.58
62025;BME280;47978;49.118;12.146;2023-05-22T18:20:02;96918.09;;;20.37;58.94
62025;BME280;47978;49.118;12.146;2023-05-22T18:24:05;96905.97;;;19.92;60.76
62025;BME280;47978;49.118;12.146;2023-05-22T18:28:06;96909.75;;;19.73;61.34
62025;BME280;47978;49.118;12.146;2023-05-22T18:32:09;96909.31;;;19.45;62.72
62025;BME280;47978;49.118;12.146;2023-05-22T18:36:11;96914.38;;;19.09;64.31
62025;BME280;47978;49.118;12.146;2023-05-22T18:40:12;96924.44;;;18.87;65.68
62025;BME280;47978;49.118;12.146;2023-05-22T18:44:14;96924.47;;;18.68;65.42
62025;BME280;47978;49.118;12.146;2023-05-22T18:48:17;96930.63;;;18.31;67.58
62025;BME280;47978;49.118;12.146;2023-05-22T18:52:19;96924.97;;;18.08;68.21
62025;BME280;47978;49.118;12.146;2023-05-22T18:56:20;96926.97;;;17.88;69.39
62025;BME280;47978;49.118;12.146;2023-05-22T19:00:22;96921.31;;;17.68;69.47
62025;BME280;47978;49.118;12.146;2023-05-22T19:04:25;96928.06;;;17.48;70.06
62025;BME280;47978;49.118;12.146;2023-05-22T19:08:26;96924.31;;;17.24;70.66
62025;BME280;47978;49.118;12.146;2023-05-22T19:12:28;96929.97;;;17.08;70.80
62025;BME280;47978;49.118;12.146;2023-05-22T19:16:29;96937.00;;;16.86;70.99
62025;BME280;47978;49.118;12.146;2023-05-22T19:20:32;96942.66;;;16.74;71.97
62025;BME280;47978;49.118;12.146;2023-05-22T19:24:34;96953.81;;;16.58;72.25
62025;BME280;47978;49.118;12.146;2023-05-22T19:28:36;96957.31;;;16.39;72.91
62025;BME280;47978;49.118;12.146;2023-05-22T19:32:37;96958.88;;;16.25;72.73
62025;BME280;47978;49.118;12.146;2023-05-22T19:36:40;96960.94;;;16.12;73.05
62025;BME280;47978;49.118;12.146;2023-05-22T19:40:42;96961.06;;;16.03;73.33
62025;BME280;47978;49.118;12.146;2023-05-22T19:44:43;96975.38;;;16.02;71.39
62025;BME280;47978;49.118;12.146;2023-05-22T19:48:45;96970.78;;;15.81;72.11
62025;BME280;47978;49.118;12.146;2023-05-22T19:52:48;96981.63;;;15.58;73.25
62025;BME280;47978;49.118;12.146;2023-05-22T19:56:50;96980.59;;;15.50;72.33
62025;BME280;47978;49.118;12.146;2023-05-22T20:00:51;96975.75;;;15.35;72.31
62025;BME280;47978;49.118;12.146;2023-05-22T20:04:53;96981.19;;;15.19;73.13
62025;BME280;47978;49.118;12.146;2023-05-22T20:08:56;96986.66;;;15.03;73.55
62025;BME280;47978;49.118;12.146;2023-05-22T20:12:57;96993.84;;;14.92;73.68
62025;BME280;47978;49.118;12.146;2023-05-22T20:16:59;97002.44;;;14.87;74.32
62025;BME280;47978;49.118;12.146;2023-05-22T20:21:01;96993.84;;;14.80;73.51
62025;BME280;47978;49.118;12.146;2023-05-22T20:25:05;96989.66;;;14.74;74.37
62025;BME280;47978;49.118;12.146;2023-05-22T20:29:06;96995.91;;;14.71;74.00
62025;BME280;47978;49.118;12.146;2023-05-22T20:33:08;96997.19;;;14.61;74.03
62025;BME280;47978;49.118;12.146;2023-05-22T20:37:10;97002.03;;;14.52;74.57
62025;BME280;47978;49.118;12.146;2023-05-22T20:41:13;97001.84;;;14.48;74.82
62025;BME280;47978;49.118;12.146;2023-05-22T20:45:14;97006.59;;;14.35;75.78
62025;BME280;47978;49.118;12.146;2023-05-22T20:49:16;97010.75;;;14.29;75.56
62025;BME280;47978;49.118;12.146;2023-05-22T20:53:18;97011.94;;;14.20;74.90
62025;BME280;47978;49.118;12.146;2023-05-22T20:57:21;97009.75;;;14.13;76.07
62025;BME280;47978;49.118;12.146;2023-05-22T21:01:23;96996.53;;;14.10;75.73
62025;BME280;47978;49.118;12.146;2023-05-22T21:05:25;96990.91;;;13.98;77.14